Time;durP1;ratioP1;P1;durP2;ratioP2;P2;SDS_P1;SDS_P2;PMS_P1;PMS_P2;Temp;Humidity;BMP_temperature;BMP_pressure;BME280_temperature;BME280_humidity;BME280_pressure;Samples;Min_cycle;Max_cycle;Signal;HPM_P1;HPM_P2
2023/09/09 00:01:31;;;;;;;12.40;8.77;;;20.30;50.70;;;;;;5050519;28;20909;-74
2023/09/09 00:03:57;;;;;;;11.25;9.20;;;20.30;50.30;;;;;;5050582;28;20413;-74
2023/09/09 00:06:23;;;;;;;15.48;8.65;;;20.30;50.60;;;;;;5050569;28;20396;-74
2023/09/09 00:08:48;;;;;;;12.40;8.80;;;20.30;50.90;;;;;;5051159;28;20445;-75
2023/09/09 00:11:14;;;;;;;10.87;8.30;;;20.30;50.20;;;;;;5051948;28;20381;-75
2023/09/09 00:13:40;;;;;;;12.43;9.10;;;20.30;50.70;;;;;;5054705;28;20393;-74
2023/09/09 00:16:06;;;;;;;13.20;8.80;;;20.20;51.00;;;;;;5040599;28;20382;-75
2023/09/09 00:18:31;;;;;;;12.70;9.37;;;20.20;51.90;;;;;;5060355;28;20455;-74
2023/09/09 00:20:57;;;;;;;11.07;9.23;;;20.20;51.50;;;;;;5063640;28;20381;-74
2023/09/09 00:23:23;;;;;;;11.07;9.00;;;20.10;52.30;;;;;;5066264;28;20401;-75
2023/09/09 00:25:49;;;;;;;11.70;9.30;;;20.10;52.50;;;;;;5057241;28;20385;-75
2023/09/09 00:28:15;;;;;;;13.07;9.20;;;20.00;53.20;;;;;;5036525;28;20389;-75
2023/09/09 00:30:41;;;;;;;12.40;9.13;;;19.80;54.40;;;;;;5054345;28;20507;-75
2023/09/09 00:33:10;;;;;;;10.80;9.25;;;19.80;55.30;;;;;;5054077;28;20518;-75
2023/09/09 00:35:38;;;;;;;13.68;9.40;;;19.70;55.80;;;;;;5054124;28;20889;-75
2023/09/09 00:38:05;;;;;;;14.27;9.85;;;19.70;56.30;;;;;;5035880;28;20489;-75
2023/09/09 00:40:31;;;;;;;10.50;9.07;;;19.70;56.50;;;;;;5053493;28;20409;-75
2023/09/09 00:42:57;;;;;;;14.10;9.57;;;19.80;55.50;;;;;;5053732;28;20912;-75
2023/09/09 00:45:23;;;;;;;15.45;9.90;;;19.80;55.30;;;;;;5053592;28;20442;-76
2023/09/09 00:47:49;;;;;;;12.07;9.32;;;19.70;55.90;;;;;;5036028;28;20380;-75
2023/09/09 00:50:15;;;;;;;14.68;9.50;;;19.70;55.90;;;;;;5053951;28;20385;-75
2023/09/09 00:52:42;;;;;;;14.40;10.80;;;19.80;56.10;;;;;;5053632;28;20873;-74
2023/09/09 00:55:10;;;;;;;11.82;9.80;;;19.70;56.30;;;;;;5053620;28;20386;-74
2023/09/09 00:57:36;;;;;;;14.13;9.50;;;19.70;56.70;;;;;;5053582;28;20803;-76
2023/09/09 01:00:09;;;;;;;15.87;10.00;;;19.50;57.60;;;;;;5053707;28;20417;-76
2023/09/09 01:02:36;;;;;;;14.88;10.73;;;19.60;58.00;;;;;;5053185;28;20483;-75
2023/09/09 01:05:03;;;;;;;13.43;10.40;;;19.60;58.00;;;;;;5052413;28;20455;-75
2023/09/09 01:07:49;;;;;;;11.77;10.13;;;19.60;57.70;;;;;;5050667;28;20398;-76
2023/09/09 01:10:17;;;;;;;15.50;11.20;;;19.40;58.80;;;;;;5035675;28;20512;-76
2023/09/09 01:12:43;;;;;;;14.57;11.00;;;19.40;60.10;;;;;;5053077;28;20447;-76
2023/09/09 01:15:10;;;;;;;16.63;12.63;;;19.30;61.60;;;;;;5045152;28;20775;-76
2023/09/09 01:17:37;;;;;;;20.90;14.57;;;19.30;62.30;;;;;;5041182;28;20408;-77
2023/09/09 01:20:14;;;;;;;29.52;18.63;;;19.60;60.00;;;;;;5053368;28;20381;-76
2023/09/09 01:22:43;;;;;;;16.90;12.68;;;19.40;61.60;;;;;;5056096;28;20437;-77
2023/09/09 01:25:10;;;;;;;19.30;13.93;;;19.20;63.10;;;;;;5056339;28;20380;-76
2023/09/09 01:27:36;;;;;;;19.00;11.30;;;19.20;65.00;;;;;;5055702;28;20495;-78
2023/09/09 01:30:03;;;;;;;12.03;10.37;;;19.20;64.90;;;;;;5034493;28;20415;-74
2023/09/09 01:32:29;;;;;;;13.07;10.55;;;19.20;64.30;;;;;;5052701;28;20888;-77
2023/09/09 01:34:55;;;;;;;16.52;10.68;;;19.20;64.50;;;;;;5052522;28;20393;-75
2023/09/09 01:37:21;;;;;;;13.60;10.50;;;19.10;64.30;;;;;;5052649;28;20400;-75
2023/09/09 01:39:48;;;;;;;15.20;10.90;;;19.10;64.30;;;;;;5052601;28;20386;-76
2023/09/09 01:42:14;;;;;;;14.57;11.20;;;19.10;64.80;;;;;;5052479;28;20767;-76
2023/09/09 01:44:40;;;;;;;14.60;10.73;;;19.10;64.20;;;;;;5052460;28;20757;-75
2023/09/09 01:47:06;;;;;;;17.63;11.10;;;19.10;63.80;;;;;;5034532;28;20381;-75
2023/09/09 01:49:31;;;;;;;13.80;10.83;;;19.10;64.90;;;;;;5052456;28;20389;-75
2023/09/09 01:51:57;;;;;;;14.05;11.30;;;19.00;65.60;;;;;;5034326;28;20386;-76
2023/09/09 01:54:22;;;;;;;16.00;10.73;;;19.00;66.00;;;;;;5052430;28;20389;-74
2023/09/09 01:56:48;;;;;;;15.90;11.60;;;19.00;67.10;;;;;;5052055;28;20373;-76
2023/09/09 01:59:14;;;;;;;13.93;10.95;;;18.90;67.10;;;;;;5034321;28;20524;-76
2023/09/09 02:01:39;;;;;;;13.50;11.10;;;18.90;67.30;;;;;;5052082;28;20471;-76
2023/09/09 02:04:05;;;;;;;16.57;11.80;;;18.90;67.60;;;;;;5033990;28;20500;-75
2023/09/09 02:06:30;;;;;;;16.52;11.05;;;18.90;68.10;;;;;;5052017;28;20855;-75
2023/09/09 02:08:56;;;;;;;14.17;11.10;;;18.80;69.50;;;;;;5052211;28;20381;-74
2023/09/09 02:11:21;;;;;;;16.73;12.13;;;18.80;69.80;;;;;;5051918;28;20381;-74
2023/09/09 02:13:47;;;;;;;13.98;11.05;;;18.80;68.60;;;;;;5051899;28;20385;-74
2023/09/09 02:16:12;;;;;;;14.97;11.27;;;18.90;67.80;;;;;;5051943;28;20384;-74
2023/09/09 02:18:39;;;;;;;12.45;10.65;;;18.90;67.40;;;;;;5034099;28;20519;-76
2023/09/09 02:21:06;;;;;;;15.65;10.63;;;18.90;66.40;;;;;;5051635;28;20400;-76
2023/09/09 02:23:31;;;;;;;14.18;11.25;;;18.80;67.10;;;;;;5051964;28;20408;-76
2023/09/09 02:25:57;;;;;;;16.20;10.90;;;18.80;67.60;;;;;;5052159;28;20389;-76
2023/09/09 02:28:24;;;;;;;15.00;10.60;;;18.80;67.20;;;;;;5052033;28;20874;-74
2023/09/09 02:30:49;;;;;;;18.15;10.48;;;18.80;66.40;;;;;;5051759;28;20769;-75
2023/09/09 02:33:15;;;;;;;15.03;10.83;;;18.70;67.00;;;;;;5051684;28;20949;-75
2023/09/09 02:35:42;;;;;;;18.40;11.55;;;18.70;68.00;;;;;;5051481;28;20821;-75
2023/09/09 02:38:08;;;;;;;15.30;11.27;;;18.70;68.60;;;;;;5051665;28;20381;-75
2023/09/09 02:40:33;;;;;;;15.32;10.70;;;18.70;67.90;;;;;;5033424;28;20398;-77
2023/09/09 02:42:59;;;;;;;13.27;10.30;;;18.80;66.30;;;;;;5033107;28;20410;-76
2023/09/09 02:45:24;;;;;;;12.93;10.67;;;18.80;65.90;;;;;;5051035;28;20446;-76
2023/09/09 02:47:50;;;;;;;14.25;10.80;;;18.80;65.80;;;;;;5050934;28;20374;-75
2023/09/09 02:50:15;;;;;;;14.73;10.60;;;18.80;65.60;;;;;;5050764;28;20385;-76
2023/09/09 02:52:41;;;;;;;13.82;9.82;;;18.70;66.40;;;;;;5050979;28;20920;-76
2023/09/09 02:55:07;;;;;;;16.05;10.20;;;18.60;67.60;;;;;;5056616;28;20397;-75
2023/09/09 02:57:32;;;;;;;15.50;10.80;;;18.60;66.80;;;;;;5051588;28;20444;-77
2023/09/09 02:59:58;;;;;;;14.30;10.73;;;18.60;66.50;;;;;;5051896;28;20381;-77
2023/09/09 03:02:23;;;;;;;15.02;11.00;;;18.60;66.10;;;;;;5052226;28;20503;-76
2023/09/09 03:04:49;;;;;;;12.60;10.23;;;18.60;66.10;;;;;;5035190;28;20393;-76
2023/09/09 03:07:14;;;;;;;14.48;10.77;;;18.50;66.50;;;;;;5052005;28;20431;-76
2023/09/09 03:09:40;;;;;;;14.15;10.38;;;18.60;67.50;;;;;;5052552;28;20909;-74
2023/09/09 03:12:06;;;;;;;12.60;10.50;;;18.50;67.20;;;;;;5054005;28;20385;-76
2023/09/09 03:14:32;;;;;;;14.15;10.50;;;18.50;67.70;;;;;;5054081;28;20431;-74
2023/09/09 03:17:01;;;;;;;15.40;11.32;;;18.50;66.90;;;;;;5053645;28;20377;-74
2023/09/09 03:19:27;;;;;;;14.20;10.70;;;18.50;66.80;;;;;;5055659;28;20447;-74
2023/09/09 03:21:52;;;;;;;14.30;10.27;;;18.50;67.70;;;;;;5051677;28;20473;-75
2023/09/09 03:24:18;;;;;;;13.27;10.25;;;18.40;68.50;;;;;;5051363;28;20480;-74
2023/09/09 03:26:43;;;;;;;14.33;10.03;;;18.40;68.80;;;;;;5050990;28;20385;-74
2023/09/09 03:29:09;;;;;;;12.07;10.37;;;18.30;69.50;;;;;;5050920;28;20378;-76
2023/09/09 03:31:35;;;;;;;14.18;10.57;;;18.30;70.80;;;;;;5032774;28;20670;-75
2023/09/09 03:34:00;;;;;;;12.73;10.07;;;18.30;71.70;;;;;;5050780;28;20743;-76
2023/09/09 03:36:26;;;;;;;12.07;10.00;;;18.30;70.70;;;;;;5050881;28;20392;-75
2023/09/09 03:38:51;;;;;;;17.77;11.17;;;18.30;71.80;;;;;;5051209;28;20384;-77
2023/09/09 03:41:17;;;;;;;14.00;10.67;;;18.20;72.70;;;;;;5051426;28;20381;-76
2023/09/09 03:43:42;;;;;;;16.30;11.43;;;18.30;72.60;;;;;;5051262;28;20500;-75
2023/09/09 03:46:08;;;;;;;14.93;11.25;;;18.40;72.00;;;;;;5051061;28;20384;-75
2023/09/09 03:48:34;;;;;;;14.10;11.20;;;18.40;71.90;;;;;;5051626;28;20456;-76
2023/09/09 03:51:00;;;;;;;15.57;11.40;;;18.40;72.00;;;;;;5033177;28;20782;-74
2023/09/09 03:53:26;;;;;;;13.70;10.60;;;18.30;72.90;;;;;;5053101;28;20746;-75
2023/09/09 03:55:52;;;;;;;13.88;10.65;;;18.20;74.30;;;;;;5054944;28;20408;-74
2023/09/09 03:58:18;;;;;;;14.82;11.38;;;18.20;74.40;;;;;;5055632;28;20398;-76
2023/09/09 04:00:46;;;;;;;15.30;11.10;;;18.20;75.50;;;;;;5037741;28;20447;-74
2023/09/09 04:03:12;;;;;;;16.02;11.50;;;18.30;73.80;;;;;;5054942;28;20393;-75
2023/09/09 04:05:38;;;;;;;15.57;11.47;;;18.20;74.20;;;;;;5055174;28;20873;-75
2023/09/09 04:08:08;;;;;;;15.85;11.15;;;18.20;74.20;;;;;;5055574;28;20381;-75
2023/09/09 04:10:34;;;;;;;13.67;11.07;;;18.10;74.70;;;;;;5055386;28;20373;-76
2023/09/09 04:12:59;;;;;;;14.70;11.00;;;18.10;74.50;;;;;;5055057;28;20400;-74
2023/09/09 04:15:25;;;;;;;15.57;11.27;;;18.10;75.00;;;;;;5055381;28;20400;-75
2023/09/09 04:17:51;;;;;;;16.55;11.25;;;18.00;75.90;;;;;;5055994;28;20506;-75
2023/09/09 04:20:16;;;;;;;15.63;11.90;;;18.30;73.30;;;;;;5056971;28;20393;-76
2023/09/09 04:22:42;;;;;;;13.10;11.23;;;18.40;70.90;;;;;;5057288;28;20436;-76
2023/09/09 04:25:07;;;;;;;13.15;11.15;;;18.20;72.70;;;;;;5057677;28;20396;-76
2023/09/09 04:27:33;;;;;;;15.43;11.70;;;18.10;74.50;;;;;;5059706;28;20385;-77
2023/09/09 04:29:58;;;;;;;13.97;11.73;;;18.10;75.50;;;;;;5041434;28;20390;-77
2023/09/09 04:32:24;;;;;;;15.77;11.50;;;18.00;77.80;;;;;;5062493;28;20385;-77
2023/09/09 04:34:50;;;;;;;15.27;11.40;;;18.00;78.00;;;;;;5048223;28;20853;-75
2023/09/09 04:37:16;;;;;;;16.27;11.10;;;17.90;78.80;;;;;;5067387;28;20393;-77
2023/09/09 04:39:41;;;;;;;17.38;12.32;;;17.90;79.90;;;;;;5072239;28;20389;-77
2023/09/09 04:42:07;;;;;;;16.75;11.77;;;17.80;81.20;;;;;;5053355;28;20394;-77
2023/09/09 04:44:32;;;;;;;16.50;12.15;;;17.70;82.40;;;;;;5070330;28;20377;-76
2023/09/09 04:46:58;;;;;;;15.50;12.40;;;17.70;83.20;;;;;;5069497;28;20397;-76
2023/09/09 04:49:24;;;;;;;14.57;12.07;;;17.70;84.20;;;;;;5066123;28;20381;-77
2023/09/09 04:51:49;;;;;;;15.18;11.43;;;17.80;82.30;;;;;;5064215;28;20480;-76
2023/09/09 04:54:15;;;;;;;15.18;11.85;;;17.70;83.20;;;;;;5060868;28;20931;-76
2023/09/09 04:56:41;;;;;;;15.43;12.00;;;17.60;84.50;;;;;;5042642;28;20535;-76
2023/09/09 04:59:06;;;;;;;15.50;11.77;;;17.50;85.60;;;;;;5037711;28;20405;-76
2023/09/09 05:01:32;;;;;;;17.42;12.70;;;17.50;85.90;;;;;;5054750;28;20397;-76
2023/09/09 05:03:57;;;;;;;15.30;11.70;;;17.50;87.50;;;;;;5054611;28;20401;-78
2023/09/09 05:06:23;;;;;;;16.90;12.30;;;17.40;87.10;;;;;;5054806;28;20413;-76
2023/09/09 05:08:49;;;;;;;16.45;12.77;;;17.50;87.50;;;;;;5055139;28;20396;-75
2023/09/09 05:11:15;;;;;;;15.65;12.60;;;17.50;87.40;;;;;;5053652;28;20472;-75
2023/09/09 05:13:40;;;;;;;17.90;13.23;;;17.50;87.80;;;;;;5053236;28;20773;-76
2023/09/09 05:16:06;;;;;;;19.70;12.18;;;17.50;88.10;;;;;;5053371;28;20874;-76
2023/09/09 05:18:31;;;;;;;17.23;12.27;;;17.50;87.90;;;;;;5053142;28;20397;-75
2023/09/09 05:20:57;;;;;;;18.00;12.70;;;17.50;87.80;;;;;;5052706;28;20874;-75
2023/09/09 05:23:22;;;;;;;16.92;12.65;;;17.60;86.60;;;;;;5052793;28;20404;-76
2023/09/09 05:25:48;;;;;;;15.90;11.63;;;17.60;87.00;;;;;;5052671;28;20393;-76
2023/09/09 05:28:13;;;;;;;17.75;12.27;;;17.60;86.30;;;;;;5053259;28;20412;-76
2023/09/09 05:30:42;;;;;;;18.13;12.80;;;17.80;84.10;;;;;;5036007;28;20950;-75
2023/09/09 05:33:08;;;;;;;14.20;11.83;;;17.90;82.40;;;;;;5055609;28;20428;-75
2023/09/09 05:35:34;;;;;;;18.87;12.20;;;18.10;79.50;;;;;;5041228;28;20794;-75
2023/09/09 05:37:59;;;;;;;16.38;11.75;;;18.20;78.10;;;;;;5036360;28;20388;-76
2023/09/09 05:40:25;;;;;;;16.23;12.32;;;18.20;77.10;;;;;;5053953;28;20428;-75
2023/09/09 05:42:51;;;;;;;15.00;12.07;;;18.20;76.70;;;;;;5054129;28;20408;-74
2023/09/09 05:45:16;;;;;;;19.20;12.40;;;18.30;74.20;;;;;;5035160;28;20396;-76
2023/09/09 05:47:44;;;;;;;16.63;12.43;;;18.40;73.50;;;;;;5053089;28;20681;-74
2023/09/09 05:50:11;;;;;;;19.10;12.70;;;18.30;74.50;;;;;;5052913;28;20491;-74
2023/09/09 05:52:37;;;;;;;17.85;12.48;;;18.30;74.60;;;;;;5052913;28;20874;-75
2023/09/09 05:55:04;;;;;;;19.15;12.70;;;18.30;74.50;;;;;;5053108;28;20491;-75
2023/09/09 05:57:32;;;;;;;17.13;12.32;;;18.40;74.60;;;;;;5053099;28;20385;-76
2023/09/09 05:59:58;;;;;;;15.52;12.80;;;18.40;72.10;;;;;;5052708;28;20415;-76
2023/09/09 06:02:25;;;;;;;17.25;12.82;;;18.50;71.40;;;;;;5052517;28;20832;-75
2023/09/09 06:04:50;;;;;;;16.80;11.90;;;18.60;70.60;;;;;;5052315;28;20480;-75
2023/09/09 06:07:16;;;;;;;18.65;12.48;;;18.70;68.20;;;;;;5052964;28;20431;-75
2023/09/09 06:09:41;;;;;;;16.13;12.27;;;18.80;66.00;;;;;;5052711;28;20394;-76
2023/09/09 06:12:07;;;;;;;16.30;12.33;;;18.80;66.10;;;;;;5036773;28;20476;-76
2023/09/09 06:14:32;;;;;;;16.17;11.90;;;18.90;65.30;;;;;;5055167;28;20503;-75
2023/09/09 06:16:58;;;;;;;16.70;11.60;;;19.00;64.30;;;;;;5054094;28;20382;-75
2023/09/09 06:19:24;;;;;;;15.93;11.68;;;19.10;64.20;;;;;;5055966;28;20451;-76
2023/09/09 06:21:49;;;;;;;18.83;12.20;;;19.20;62.80;;;;;;5056329;28;20378;-75
2023/09/09 06:24:15;;;;;;;16.57;11.30;;;19.30;61.10;;;;;;5055912;28;20455;-75
2023/09/09 06:26:40;;;;;;;18.80;12.30;;;19.40;60.40;;;;;;5055858;28;20377;-76
2023/09/09 06:29:06;;;;;;;18.33;12.23;;;19.40;59.40;;;;;;5058310;28;20428;-76
2023/09/09 06:31:31;;;;;;;16.53;12.13;;;19.50;58.10;;;;;;5058622;28;20399;-76
2023/09/09 06:33:57;;;;;;;15.35;11.60;;;19.70;57.50;;;;;;5057059;28;20389;-76
2023/09/09 06:36:23;;;;;;;15.95;12.48;;;19.70;56.10;;;;;;5058397;28;20390;-76
2023/09/09 06:38:50;;;;;;;16.75;11.65;;;19.80;55.10;;;;;;5059422;28;20485;-75
2023/09/09 06:41:15;;;;;;;13.52;11.15;;;19.90;53.80;;;;;;5060578;28;20409;-75
2023/09/09 06:43:42;;;;;;;14.63;11.13;;;20.00;52.40;;;;;;5061104;28;20531;-75
2023/09/09 06:46:08;;;;;;;16.73;10.93;;;20.20;51.00;;;;;;5059661;28;20436;-76
2023/09/09 06:48:33;;;;;;;18.97;11.00;;;20.30;51.40;;;;;;5057277;28;20787;-76
2023/09/09 06:50:59;;;;;;;17.10;10.70;;;20.30;51.40;;;;;;5052279;28;20409;-74
2023/09/09 06:53:25;;;;;;;13.27;10.13;;;20.40;50.80;;;;;;5054411;28;20385;-74
2023/09/09 06:55:51;;;;;;;13.13;9.90;;;20.50;50.60;;;;;;5053485;28;20469;-75
2023/09/09 06:58:17;;;;;;;15.25;10.32;;;20.70;49.70;;;;;;5052885;28;20400;-74
2023/09/09 07:00:49;;;;;;;14.35;9.98;;;20.70;49.00;;;;;;5052472;28;20389;-76
2023/09/09 07:03:15;;;;;;;13.63;10.38;;;20.80;47.40;;;;;;5052580;28;20405;-77
2023/09/09 07:05:40;;;;;;;13.73;9.80;;;20.80;47.00;;;;;;5051303;28;20785;-76
2023/09/09 07:08:06;;;;;;;17.03;9.80;;;21.00;46.00;;;;;;5051358;28;20377;-75
2023/09/09 07:10:31;;;;;;;14.35;9.85;;;21.10;45.70;;;;;;5051190;28;20377;-76
2023/09/09 07:12:57;;;;;;;13.67;9.33;;;21.20;44.30;;;;;;5050768;28;20386;-75
2023/09/09 07:15:23;;;;;;;13.93;10.30;;;21.40;43.90;;;;;;5051042;28;20381;-77
2023/09/09 07:17:48;;;;;;;14.48;10.00;;;21.50;43.00;;;;;;5050912;28;20392;-75
2023/09/09 07:20:15;;;;;;;11.67;9.10;;;21.50;42.50;;;;;;5051015;28;20858;-75
2023/09/09 07:22:41;;;;;;;13.50;9.70;;;21.60;43.30;;;;;;5050612;28;20529;-75
2023/09/09 07:25:07;;;;;;;13.93;10.10;;;21.60;42.70;;;;;;5050910;28;20385;-75
2023/09/09 07:27:33;;;;;;;12.88;9.60;;;21.70;43.00;;;;;;5050067;28;20389;-76
2023/09/09 07:29:58;;;;;;;14.45;8.98;;;21.70;42.20;;;;;;5051078;28;20387;-74
2023/09/09 07:32:24;;;;;;;13.15;9.80;;;21.90;41.70;;;;;;5050539;28;20404;-76
2023/09/09 07:34:50;;;;;;;19.90;10.07;;;22.00;40.90;;;;;;5050394;28;20394;-74
2023/09/09 07:37:16;;;;;;;13.38;9.32;;;22.10;40.60;;;;;;5050539;28;20385;-75
2023/09/09 07:39:50;;;;;;;13.13;9.33;;;22.20;40.00;;;;;;5050426;28;20389;-75
2023/09/09 07:42:15;;;;;;;13.68;10.00;;;22.30;40.30;;;;;;5050458;28;20388;-75
2023/09/09 07:44:42;;;;;;;13.90;9.23;;;22.40;40.30;;;;;;5050321;28;20385;-77
2023/09/09 07:47:08;;;;;;;18.42;10.70;;;22.40;40.10;;;;;;5050537;28;20792;-76
2023/09/09 07:49:34;;;;;;;17.40;10.40;;;22.50;39.70;;;;;;5050404;28;20392;-74
2023/09/09 07:52:00;;;;;;;15.63;10.23;;;22.70;38.20;;;;;;5050256;28;20384;-75
2023/09/09 07:54:26;;;;;;;14.45;9.55;;;22.60;37.60;;;;;;5050418;28;20404;-76
2023/09/09 07:56:52;;;;;;;15.23;10.68;;;22.70;37.40;;;;;;5032872;28;20900;-76
2023/09/09 07:59:17;;;;;;;16.33;9.52;;;22.70;37.70;;;;;;5050763;28;20397;-74
2023/09/09 08:01:44;;;;;;;20.97;11.80;;;22.90;37.60;;;;;;5051075;28;20388;-75
2023/09/09 08:04:10;;;;;;;17.00;11.35;;;23.00;36.90;;;;;;5049962;28;20451;-75
2023/09/09 08:06:35;;;;;;;17.43;10.93;;;23.00;36.40;;;;;;5050117;28;20397;-74
2023/09/09 08:09:01;;;;;;;16.15;10.43;;;23.10;36.20;;;;;;5050395;28;20862;-74
2023/09/09 08:11:26;;;;;;;14.43;10.30;;;23.10;36.60;;;;;;5050136;28;20409;-74
2023/09/09 08:13:52;;;;;;;15.77;10.18;;;23.10;36.50;;;;;;5050020;28;20920;-75
2023/09/09 08:16:18;;;;;;;15.82;9.90;;;23.30;36.00;;;;;;5050240;28;20438;-73
2023/09/09 08:18:43;;;;;;;17.00;10.60;;;23.30;35.60;;;;;;5050582;28;20781;-74
2023/09/09 08:21:10;;;;;;;13.23;10.43;;;23.40;35.50;;;;;;5050832;28;20394;-76
2023/09/09 08:23:36;;;;;;;15.77;10.70;;;23.40;35.50;;;;;;5049864;28;20417;-74
2023/09/09 08:26:01;;;;;;;14.50;10.47;;;23.50;35.50;;;;;;5050156;28;20758;-75
2023/09/09 08:28:27;;;;;;;13.68;9.70;;;23.60;35.60;;;;;;5050384;28;20882;-76
2023/09/09 08:31:00;;;;;;;16.67;10.27;;;23.70;34.80;;;;;;5050015;28;20397;-76
2023/09/09 08:33:26;;;;;;;15.10;10.20;;;23.80;34.60;;;;;;5050152;28;20435;-76
2023/09/09 08:35:52;;;;;;;14.05;10.38;;;24.00;34.30;;;;;;5050407;28;20480;-75
2023/09/09 08:38:17;;;;;;;14.20;9.80;;;24.00;34.20;;;;;;5050342;28;20894;-76
2023/09/09 08:41:06;;;;;;;15.50;9.70;;;24.20;34.00;;;;;;5053929;28;20427;-75
2023/09/09 08:44:02;;;;;;;15.20;10.27;;;24.30;33.60;;;;;;5041129;28;20820;-77
2023/09/09 08:46:28;;;;;;;17.30;10.10;;;24.40;33.50;;;;;;5054963;28;20382;-77
2023/09/09 08:48:57;;;;;;;21.00;10.45;;;24.50;33.40;;;;;;5054803;28;20381;-76
2023/09/09 08:51:30;;;;;;;18.25;10.52;;;24.70;33.00;;;;;;5037287;28;20424;-77
2023/09/09 08:53:57;;;;;;;17.87;10.17;;;24.70;32.30;;;;;;5055692;28;20439;-76
2023/09/09 08:56:23;;;;;;;16.87;9.90;;;24.80;32.00;;;;;;5054795;28;20385;-76
2023/09/09 08:58:49;;;;;;;14.05;10.25;;;24.90;31.80;;;;;;5053737;28;20456;-74
2023/09/09 09:01:15;;;;;;;16.23;11.98;;;24.90;32.50;;;;;;5035554;28;20393;-76
2023/09/09 09:03:42;;;;;;;18.57;10.70;;;25.00;31.90;;;;;;5053633;28;20404;-76
2023/09/09 09:06:09;;;;;;;19.05;10.80;;;25.10;31.70;;;;;;5058999;28;20389;-77
2023/09/09 09:08:35;;;;;;;17.70;10.55;;;25.20;31.30;;;;;;5061537;28;20397;-77
2023/09/09 09:11:03;;;;;;;14.40;10.02;;;25.20;31.70;;;;;;5045856;28;20377;-77
2023/09/09 09:13:35;;;;;;;15.05;9.85;;;25.30;30.80;;;;;;5064086;28;20412;-77
2023/09/09 09:16:01;;;;;;;14.75;10.15;;;25.40;30.50;;;;;;5061668;28;20385;-77
2023/09/09 09:18:26;;;;;;;15.20;10.50;;;25.50;30.90;;;;;;5055356;28;20870;-77
2023/09/09 09:20:53;;;;;;;13.30;9.50;;;25.60;30.10;;;;;;5053745;28;20920;-77
2023/09/09 09:23:19;;;;;;;16.13;9.57;;;25.70;30.20;;;;;;5059058;28;20408;-76
2023/09/09 09:25:47;;;;;;;17.88;10.48;;;25.80;29.40;;;;;;5041108;28;20382;-77
2023/09/09 09:28:14;;;;;;;13.40;9.45;;;25.90;29.00;;;;;;5061522;28;20385;-77
2023/09/09 09:30:40;;;;;;;14.35;10.18;;;26.00;29.60;;;;;;5061378;28;20389;-78
2023/09/09 09:33:06;;;;;;;13.43;9.85;;;26.00;29.90;;;;;;5059621;28;20453;-77
2023/09/09 09:35:33;;;;;;;19.33;10.40;;;26.20;28.70;;;;;;5044724;28;20425;-76
2023/09/09 09:37:59;;;;;;;18.25;10.98;;;26.30;28.40;;;;;;5056144;28;20377;-76
2023/09/09 09:40:26;;;;;;;17.55;10.38;;;26.40;28.20;;;;;;5058560;28;20494;-76
2023/09/09 09:42:52;;;;;;;18.02;9.90;;;26.40;28.30;;;;;;5067933;28;20440;-77
2023/09/09 09:45:25;;;;;;;16.93;10.20;;;26.40;28.50;;;;;;5060332;28;20385;-77
2023/09/09 09:47:51;;;;;;;18.23;10.43;;;26.40;28.30;;;;;;5053907;28;20385;-76
2023/09/09 09:50:31;;;;;;;17.73;11.13;;;26.40;28.10;;;;;;5054174;28;20397;-77
2023/09/09 09:53:04;;;;;;;14.05;9.48;;;26.40;27.90;;;;;;5058945;28;20917;-76
2023/09/09 09:55:32;;;;;;;19.05;10.60;;;26.60;27.20;;;;;;5060766;28;20858;-77
2023/09/09 09:58:02;;;;;;;20.33;10.40;;;26.80;27.10;;;;;;5056278;28;20481;-77
2023/09/09 10:00:28;;;;;;;16.33;10.03;;;26.80;27.00;;;;;;5055837;28;20381;-76
2023/09/09 10:02:56;;;;;;;21.17;10.23;;;27.00;27.10;;;;;;5056797;28;20488;-78
2023/09/09 10:05:26;;;;;;;20.08;10.20;;;27.00;27.10;;;;;;5058407;28;20398;-77
2023/09/09 10:08:09;;;;;;;14.77;10.10;;;27.00;27.20;;;;;;5035595;28;20381;-76
2023/09/09 10:10:37;;;;;;;20.42;13.10;;;27.00;27.60;;;;;;5053129;28;20440;-77
2023/09/09 10:13:38;;;;;;;22.55;11.30;;;27.00;27.90;;;;;;5053444;28;20809;-77
2023/09/09 10:16:06;;;;;;;17.33;10.50;;;27.10;26.70;;;;;;5023136;28;20400;-77
2023/09/09 10:18:33;;;;;;;16.00;10.40;;;27.20;27.10;;;;;;5056714;28;20443;-76
2023/09/09 10:20:59;;;;;;;15.33;10.47;;;27.30;26.70;;;;;;5057785;28;20428;-77
2023/09/09 10:23:25;;;;;;;15.77;10.65;;;27.30;26.60;;;;;;5057298;28;20777;-77
2023/09/09 10:25:52;;;;;;;21.05;12.10;;;27.40;26.60;;;;;;5062436;28;20374;-77
2023/09/09 10:28:21;;;;;;;19.00;12.10;;;27.40;26.00;;;;;;5060049;28;20520;-77
2023/09/09 10:30:48;;;;;;;25.37;12.80;;;27.50;26.30;;;;;;5055669;28;20388;-76
2023/09/09 10:33:14;;;;;;;16.38;11.10;;;27.60;26.40;;;;;;5058529;28;20381;-75
2023/09/09 10:35:43;;;;;;;22.33;11.85;;;27.60;25.80;;;;;;5055628;28;20500;-76
2023/09/09 10:38:11;;;;;;;18.00;11.18;;;27.60;25.80;;;;;;5056888;28;20888;-78
2023/09/09 10:40:37;;;;;;;20.20;9.98;;;27.70;25.70;;;;;;5055327;28;20412;-77
2023/09/09 10:43:03;;;;;;;19.37;10.30;;;27.80;25.80;;;;;;5055022;28;20478;-78
2023/09/09 10:45:31;;;;;;;19.10;8.18;;;27.80;25.60;;;;;;5058016;28;20382;-77
2023/09/09 10:47:59;;;;;;;22.55;10.90;;;27.90;24.40;;;;;;5061012;28;20381;-77
2023/09/09 10:50:44;;;;;;;20.37;10.73;;;28.00;24.50;;;;;;5070949;28;20388;-75
2023/09/09 10:53:36;;;;;;;20.52;10.38;;;28.00;24.90;;;;;;5065976;28;20382;-76
2023/09/09 10:56:17;;;;;;;18.02;9.40;;;27.90;24.60;;;;;;5062647;28;20877;-77
2023/09/09 10:58:44;;;;;;;21.65;10.20;;;28.00;24.70;;;;;;5057999;28;20393;-76
2023/09/09 11:01:22;;;;;;;18.20;9.45;;;28.40;24.40;;;;;;5057955;28;20388;-77
2023/09/09 11:03:48;;;;;;;21.17;8.30;;;28.50;23.50;;;;;;5036595;28;20401;-76
2023/09/09 11:06:33;;;;;;;18.98;8.98;;;28.40;23.10;;;;;;5054840;28;20393;-77
2023/09/09 11:09:02;;;;;;;17.55;8.90;;;28.40;22.20;;;;;;5039968;28;20424;-77
2023/09/09 11:11:37;;;;;;;29.17;8.40;;;28.40;23.00;;;;;;5057215;28;20373;-78
2023/09/09 11:14:07;;;;;;;26.00;9.50;;;28.40;21.70;;;;;;5055538;28;20381;-77
2023/09/09 11:16:33;;;;;;;25.70;9.10;;;28.30;22.90;;;;;;5056196;28;20389;-78
2023/09/09 11:19:02;;;;;;;13.85;8.52;;;28.30;22.30;;;;;;5055678;28;20427;-78
2023/09/09 11:21:32;;;;;;;20.85;9.85;;;28.40;22.90;;;;;;5055287;28;20384;-77
2023/09/09 11:23:58;;;;;;;16.65;9.40;;;28.50;23.50;;;;;;5054992;28;20405;-78
2023/09/09 11:26:24;;;;;;;26.40;10.90;;;28.60;23.40;;;;;;5055160;28;20381;-78
2023/09/09 11:28:50;;;;;;;26.80;10.00;;;28.60;23.50;;;;;;5056354;28;20507;-77
2023/09/09 11:31:17;;;;;;;22.00;9.90;;;28.60;23.90;;;;;;5065797;28;20404;-77
2023/09/09 11:33:43;;;;;;;21.45;9.90;;;28.60;23.70;;;;;;5059307;28;20397;-77
2023/09/09 11:36:09;;;;;;;23.00;10.30;;;28.70;23.30;;;;;;5050148;28;20893;-76
2023/09/09 11:38:35;;;;;;;22.93;11.10;;;28.80;23.80;;;;;;5021280;28;20431;-76
2023/09/09 11:41:01;;;;;;;18.05;10.00;;;28.80;23.30;;;;;;5011372;28;20611;-76
2023/09/09 11:43:27;;;;;;;20.23;10.30;;;28.90;23.30;;;;;;5049533;28;20405;-77
2023/09/09 11:45:54;;;;;;;23.17;9.70;;;28.80;23.80;;;;;;5055145;28;20480;-76
2023/09/09 11:48:21;;;;;;;22.17;10.07;;;28.80;23.60;;;;;;5052702;28;20401;-76
2023/09/09 11:50:48;;;;;;;17.00;10.07;;;28.90;23.90;;;;;;5054811;28;20474;-76
2023/09/09 11:53:14;;;;;;;24.80;10.40;;;29.00;24.30;;;;;;5049847;28;20401;-77
2023/09/09 11:55:39;;;;;;;17.90;10.20;;;29.00;23.80;;;;;;5048154;28;20409;-76
2023/09/09 11:58:06;;;;;;;21.17;10.23;;;29.10;23.40;;;;;;5046588;28;20449;-76
2023/09/09 12:00:32;;;;;;;29.38;10.52;;;29.10;23.60;;;;;;5049264;28;20766;-76
2023/09/09 12:02:57;;;;;;;20.73;10.55;;;29.20;23.90;;;;;;5051684;28;20411;-77
2023/09/09 12:05:31;;;;;;;24.37;10.70;;;29.20;23.80;;;;;;5051146;28;20390;-78
2023/09/09 12:08:01;;;;;;;16.17;9.52;;;29.20;23.90;;;;;;5051940;28;20404;-76
2023/09/09 12:10:30;;;;;;;18.38;9.55;;;29.40;22.20;;;;;;5058275;28;20416;-76
2023/09/09 12:12:56;;;;;;;18.85;10.30;;;29.50;23.20;;;;;;5057688;28;20385;-77
2023/09/09 12:15:22;;;;;;;20.60;10.70;;;29.60;22.30;;;;;;5065920;28;20389;-77
2023/09/09 12:17:47;;;;;;;22.42;11.00;;;29.50;22.50;;;;;;5068627;28;20388;-77
2023/09/09 12:20:13;;;;;;;22.77;10.07;;;29.40;22.80;;;;;;5067256;28;20394;-77
2023/09/09 12:22:47;;;;;;;17.70;9.20;;;29.40;23.00;;;;;;5063282;28;20841;-76
2023/09/09 12:25:48;;;;;;;20.10;8.88;;;29.40;21.60;;;;;;5059953;28;20439;-77
2023/09/09 12:28:19;;;;;;;17.97;9.23;;;29.60;21.30;;;;;;4943095;29;20540;-77